Time,TemperatureF,DewpointF,PressureIn,WindDirection,WindDirectionDegrees,WindSpeedMPH,WindSpeedGustMPH,Humidity,HourlyPrecipIn,Conditions,Clouds,dailyrainin,SoftwareType,DateUTC
2013-10-01 00:00:00,52.9,50.9,30.01,South,169,0.0,0.0,93,0.00,,,0.00,meteohub,2013-10-01 04:00:00,
2013-10-01 00:01:00,52.9,50.9,30.01,South,169,0.0,0.0,93,0.00,,,0.00,meteohub,2013-10-01 04:01:00,
2013-10-01 00:02:00,52.9,50.9,30.01,South,169,0.0,0.0,93,0.00,,,0.00,meteohub,2013-10-01 04:02:00,
2013-10-01 00:03:00,52.7,50.7,30.01,South,169,0.0,0.0,93,0.00,,,0.00,meteohub,2013-10-01 04:03:00,
2013-10-01 00:08:00,52.5,50.5,30.00,South,169,0.0,0.0,93,0.00,,,0.00,meteohub,2013-10-01 04:08:00,
2013-10-01 00:13:00,52.5,50.5,30.00,South,169,0.0,0.0,93,0.00,,,0.00,meteohub,2013-10-01 04:13:00,
2013-10-01 00:18:00,52.3,50.4,30.00,South,169,0.0,0.0,93,0.00,,,0.00,meteohub,2013-10-01 04:18:00,
2013-10-01 00:23:00,52.3,50.4,30.00,South,169,0.0,0.0,93,0.00,,,0.00,meteohub,2013-10-01 04:23:00,
2013-10-01 00:28:00,52.3,50.4,30.00,South,169,0.0,0.0,93,0.00,,,0.00,meteohub,2013-10-01 04:28:00,
2013-10-01 00:33:00,52.2,50.5,30.00,South,169,0.0,0.0,94,0.00,,,0.00,meteohub,2013-10-01 04:33:00,
2013-10-01 00:39:00,52.3,50.7,30.00,South,169,0.0,0.0,94,0.00,,,0.00,meteohub,2013-10-01 04:39:00,
2013-10-01 00:44:00,52.3,50.7,30.00,South,169,0.0,0.0,94,0.00,,,0.00,meteohub,2013-10-01 04:44:00,
2013-10-01 00:49:00,52.3,50.7,30.00,South,169,0.0,0.0,94,0.00,,,0.00,meteohub,2013-10-01 04:49:00,
2013-10-01 00:54:00,52.3,50.7,30.00,South,169,0.0,0.0,94,0.00,,,0.00,meteohub,2013-10-01 04:54:00,
2013-10-01 00:59:00,52.3,50.7,30.00,South,169,0.0,1.0,94,0.00,,,0.00,meteohub,2013-10-01 04:59:00,
2013-10-01 01:04:00,52.3,50.7,30.00,South,169,0.0,1.0,94,0.00,,,0.00,meteohub,2013-10-01 05:04:00,
2013-10-01 01:09:00,52.3,50.7,30.00,South,169,0.0,1.0,94,0.00,,,0.00,meteohub,2013-10-01 05:09:00,
2013-10-01 01:15:00,52.3,50.7,30.00,South,169,0.0,0.0,94,0.00,,,0.00,meteohub,2013-10-01 05:15:00,
2013-10-01 01:20:00,52.3,50.7,30.00,South,169,0.0,0.0,94,0.00,,,0.00,meteohub,2013-10-01 05:20:00,
2013-10-01 01:25:00,52.2,50.5,30.00,South,169,0.0,0.0,94,0.00,,,0.00,meteohub,2013-10-01 05:25:00,
2013-10-01 01:30:00,52.2,50.5,30.01,South,169,0.0,0.0,94,0.00,,,0.00,meteohub,2013-10-01 05:30:00,
2013-10-01 01:35:00,52.2,50.5,30.00,South,169,0.0,1.0,94,0.00,,,0.00,meteohub,2013-10-01 05:35:00,
2013-10-01 01:40:00,52.0,50.4,30.00,South,169,0.0,1.0,94,0.00,,,0.00,meteohub,2013-10-01 05:40:00,
2013-10-01 01:45:00,52.0,50.4,30.00,South,169,0.0,1.0,94,0.00,,,0.00,meteohub,2013-10-01 05:45:00,
2013-10-01 01:50:00,52.0,50.4,30.00,South,169,0.0,0.0,94,0.00,,,0.00,meteohub,2013-10-01 05:50:00,
2013-10-01 01:55:00,52.0,50.4,30.00,South,169,0.0,0.0,94,0.00,,,0.00,meteohub,2013-10-01 05:55:00,
2013-10-01 02:00:00,52.0,50.4,30.00,South,169,0.0,0.0,94,0.00,,,0.00,meteohub,2013-10-01 06:00:00,
2013-10-01 02:05:00,52.0,50.4,30.00,South,169,0.0,0.0,94,0.00,,,0.00,meteohub,2013-10-01 06:05:00,
2013-10-01 02:10:00,51.8,50.2,30.00,South,169,0.0,0.0,94,0.00,,,0.00,meteohub,2013-10-01 06:10:00,
2013-10-01 02:15:00,51.6,50.0,30.00,South,169,0.0,0.0,94,0.00,,,0.00,meteohub,2013-10-01 06:15:00,
2013-10-01 02:20:00,51.6,50.0,30.00,South,169,0.0,0.0,94,0.00,,,0.00,meteohub,2013-10-01 06:20:00,
2013-10-01 02:25:00,51.6,50.0,30.00,South,169,0.0,0.0,94,0.00,,,0.00,meteohub,2013-10-01 06:25:00,
2013-10-01 02:30:00,51.4,49.8,30.00,South,169,0.0,0.0,94,0.00,,,0.00,meteohub,2013-10-01 06:30:00,
2013-10-01 02:35:00,51.4,49.8,30.00,South,169,0.0,0.0,94,0.00,,,0.00,meteohub,2013-10-01 06:35:00,
2013-10-01 02:40:00,51.3,49.6,30.00,South,169,0.0,0.0,94,0.00,,,0.00,meteohub,2013-10-01 06:40:00,
2013-10-01 02:45:00,51.3,49.6,30.00,South,169,0.0,0.0,94,0.00,,,0.00,meteohub,2013-10-01 06:45:00,
2013-10-01 02:50:00,51.1,49.5,30.00,South,169,0.0,0.0,94,0.00,,,0.00,meteohub,2013-10-01 06:50:00,
2013-10-01 02:55:00,50.9,49.3,29.99,South,169,0.0,0.0,94,0.00,,,0.00,meteohub,2013-10-01 06:55:00,
2013-10-01 03:01:00,50.7,48.7,29.99,South,169,0.0,0.0,93,0.00,,,0.00,meteohub,2013-10-01 07:01:00,
2013-10-01 03:06:00,50.5,48.6,29.99,South,169,0.0,0.0,93,0.00,,,0.00,meteohub,2013-10-01 07:06:00,
2013-10-01 03:11:00,50.5,48.9,29.99,South,169,0.0,0.0,94,0.00,,,0.00,meteohub,2013-10-01 07:11:00,
2013-10-01 03:16:00,50.4,48.7,29.99,South,169,0.0,0.0,94,0.00,,,0.00,meteohub,2013-10-01 07:16:00,
2013-10-01 03:21:00,50.4,48.7,29.99,South,169,0.0,0.0,94,0.00,,,0.00,meteohub,2013-10-01 07:21:00,
2013-10-01 03:26:00,50.4,48.7,29.99,South,169,0.0,0.0,94,0.00,,,0.00,meteohub,2013-10-01 07:26:00,
2013-10-01 03:31:00,50.2,48.6,29.99,South,169,0.0,0.0,94,0.00,,,0.00,meteohub,2013-10-01 07:31:00,
2013-10-01 03:36:00,50.2,48.6,29.99,South,169,0.0,0.0,94,0.00,,,0.00,meteohub,2013-10-01 07:36:00,
2013-10-01 03:41:00,50.0,48.4,29.99,South,169,0.0,0.0,94,0.00,,,0.00,meteohub,2013-10-01 07:41:00,
2013-10-01 03:46:00,49.8,47.8,29.99,South,169,0.0,0.0,93,0.00,,,0.00,meteohub,2013-10-01 07:46:00,
2013-10-01 03:51:00,49.8,48.2,29.99,South,169,0.0,0.0,94,0.00,,,0.00,meteohub,2013-10-01 07:51:00,
2013-10-01 03:57:00,49.8,48.2,29.99,South,169,0.0,0.0,94,0.00,,,0.00,meteohub,2013-10-01 07:57:00,
2013-10-01 04:02:00,49.6,47.7,29.99,South,169,0.0,0.0,93,0.00,,,0.00,meteohub,2013-10-01 08:02:00,
2013-10-01 04:07:00,49.5,47.5,29.99,South,169,0.0,0.0,93,0.00,,,0.00,meteohub,2013-10-01 08:07:00,
2013-10-01 04:12:00,49.5,47.5,29.99,South,169,0.0,0.0,93,0.00,,,0.00,meteohub,2013-10-01 08:12:00,
2013-10-01 04:17:00,49.3,47.7,29.99,South,169,0.0,0.0,94,0.00,,,0.00,meteohub,2013-10-01 08:17:00,
2013-10-01 04:22:00,49.3,47.7,29.99,South,169,0.0,0.0,94,0.00,,,0.00,meteohub,2013-10-01 08:22:00,
2013-10-01 04:27:00,49.1,47.5,29.99,South,169,0.0,0.0,94,0.00,,,0.00,meteohub,2013-10-01 08:27:00,
2013-10-01 04:32:00,48.9,47.3,29.99,South,169,0.0,0.0,94,0.00,,,0.00,meteohub,2013-10-01 08:32:00,
2013-10-01 04:37:00,48.9,47.3,29.99,South,169,0.0,0.0,94,0.00,,,0.00,meteohub,2013-10-01 08:37:00,
2013-10-01 04:42:00,48.9,47.3,29.99,South,169,0.0,0.0,94,0.00,,,0.00,meteohub,2013-10-01 08:42:00,
2013-10-01 04:47:00,49.1,47.5,29.99,South,169,0.0,0.0,94,0.00,,,0.00,meteohub,2013-10-01 08:47:00,
2013-10-01 04:53:00,49.3,47.7,29.99,South,169,0.0,0.0,94,0.00,,,0.00,meteohub,2013-10-01 08:53:00,
2013-10-01 04:58:00,49.3,47.8,29.99,South,169,0.0,0.0,95,0.00,,,0.00,meteohub,2013-10-01 08:58:00,
2013-10-01 05:04:00,49.5,48.0,29.99,South,169,0.0,0.0,95,0.00,,,0.00,meteohub,2013-10-01 09:04:00,
2013-10-01 05:09:00,49.5,47.8,29.99,South,169,0.0,0.0,94,0.00,,,0.00,meteohub,2013-10-01 09:09:00,
2013-10-01 05:14:00,49.5,47.8,29.99,South,169,0.0,0.0,94,0.00,,,0.00,meteohub,2013-10-01 09:14:00,
2013-10-01 05:19:00,49.5,47.8,30.00,South,169,0.0,0.0,94,0.00,,,0.00,meteohub,2013-10-01 09:19:00,
2013-10-01 05:24:00,49.5,47.8,30.00,South,169,0.0,0.0,94,0.00,,,0.00,meteohub,2013-10-01 09:24:00,
2013-10-01 05:29:00,49.5,47.8,30.00,South,169,0.0,0.0,94,0.00,,,0.00,meteohub,2013-10-01 09:29:00,
2013-10-01 05:34:00,49.3,47.7,30.00,South,169,0.0,0.0,94,0.00,,,0.00,meteohub,2013-10-01 09:34:00,
2013-10-01 05:39:00,49.3,47.7,30.00,South,169,0.0,0.0,94,0.00,,,0.00,meteohub,2013-10-01 09:39:00,
2013-10-01 05:44:00,49.1,47.5,30.00,South,169,0.0,0.0,94,0.00,,,0.00,meteohub,2013-10-01 09:44:00,
2013-10-01 05:49:00,48.9,47.3,30.00,South,169,0.0,0.0,94,0.00,,,0.00,meteohub,2013-10-01 09:49:00,
2013-10-01 05:54:00,48.9,47.3,30.00,South,169,0.0,0.0,94,0.00,,,0.00,meteohub,2013-10-01 09:54:00,
2013-10-01 05:59:00,48.7,47.1,30.00,South,169,0.0,0.0,94,0.00,,,0.00,meteohub,2013-10-01 09:59:00,
2013-10-01 06:04:00,48.6,46.9,30.01,South,169,0.0,0.0,94,0.00,,,0.00,meteohub,2013-10-01 10:04:00,
2013-10-01 06:09:00,48.6,46.9,30.01,South,169,0.0,0.0,94,0.00,,,0.00,meteohub,2013-10-01 10:09:00,
2013-10-01 06:14:00,48.6,46.9,30.00,South,169,0.0,0.0,94,0.00,,,0.00,meteohub,2013-10-01 10:14:00,
2013-10-01 06:19:00,48.4,46.8,30.00,South,169,0.0,0.0,94,0.00,,,0.00,meteohub,2013-10-01 10:19:00,
2013-10-01 06:24:00,48.4,46.8,30.01,South,169,0.0,0.0,94,0.00,,,0.00,meteohub,2013-10-01 10:24:00,
2013-10-01 06:29:00,48.4,46.8,30.01,South,169,0.0,0.0,94,0.00,,,0.00,meteohub,2013-10-01 10:29:00,
2013-10-01 06:35:00,48.2,46.6,30.01,South,169,0.0,0.0,94,0.00,,,0.00,meteohub,2013-10-01 10:35:00,
2013-10-01 06:40:00,48.2,46.6,30.01,South,169,0.0,0.0,94,0.00,,,0.00,meteohub,2013-10-01 10:40:00,
2013-10-01 06:45:00,48.0,46.4,30.01,South,169,0.0,0.0,94,0.00,,,0.00,meteohub,2013-10-01 10:45:00,
2013-10-01 06:50:00,47.7,45.7,30.01,South,169,0.0,0.0,93,0.00,,,0.00,meteohub,2013-10-01 10:50:00,
2013-10-01 06:55:00,47.7,46.0,30.01,South,169,0.0,0.0,94,0.00,,,0.00,meteohub,2013-10-01 10:55:00,
2013-10-01 07:00:00,47.5,45.9,30.01,South,169,0.0,0.0,94,0.00,,,0.00,meteohub,2013-10-01 11:00:00,
2013-10-01 07:05:00,47.1,45.5,30.01,South,169,0.0,0.0,94,0.00,,,0.00,meteohub,2013-10-01 11:05:00,
2013-10-01 07:10:00,47.1,45.5,30.01,South,169,0.0,0.0,94,0.00,,,0.00,meteohub,2013-10-01 11:10:00,
2013-10-01 07:15:00,46.9,45.3,30.01,South,169,0.0,0.0,94,0.00,,,0.00,meteohub,2013-10-01 11:15:00,
2013-10-01 07:20:00,46.9,45.3,30.01,South,169,0.0,0.0,94,0.00,,,0.00,meteohub,2013-10-01 11:20:00,
2013-10-01 07:25:00,46.9,45.3,30.01,South,169,0.0,0.0,94,0.00,,,0.00,meteohub,2013-10-01 11:25:00,
2013-10-01 07:30:00,46.9,45.5,30.01,South,169,0.0,0.0,95,0.00,,,0.00,meteohub,2013-10-01 11:30:00,
2013-10-01 07:35:00,47.1,45.7,30.01,South,169,0.0,0.0,95,0.00,,,0.00,meteohub,2013-10-01 11:35:00,
2013-10-01 07:40:00,47.1,45.7,30.01,South,169,1.0,1.0,95,0.00,,,0.00,meteohub,2013-10-01 11:40:00,
2013-10-01 07:45:00,47.5,46.0,30.02,South,169,0.0,1.0,95,0.00,,,0.00,meteohub,2013-10-01 11:45:00,
2013-10-01 07:50:00,47.7,46.2,30.02,South,169,0.0,1.0,95,0.00,,,0.00,meteohub,2013-10-01 11:50:00,
2013-10-01 07:55:00,47.8,46.4,30.02,South,169,0.0,1.0,95,0.00,,,0.00,meteohub,2013-10-01 11:55:00,
2013-10-01 08:00:00,48.4,47.3,30.02,South,169,0.0,0.0,96,0.00,,,0.00,meteohub,2013-10-01 12:00:00,
2013-10-01 08:05:00,48.6,47.5,30.01,South,169,0.0,0.0,96,0.00,,,0.00,meteohub,2013-10-01 12:05:00,
2013-10-01 08:10:00,49.1,48.0,30.01,South,169,0.0,0.0,96,0.00,,,0.00,meteohub,2013-10-01 12:10:00,
2013-10-01 08:15:00,49.5,48.4,30.01,South,169,0.0,0.0,96,0.00,,,0.00,meteohub,2013-10-01 12:15:00,
2013-10-01 08:21:00,50.0,48.9,30.02,South,169,0.0,0.0,96,0.00,,,0.00,meteohub,2013-10-01 12:21:00,
2013-10-01 08:26:00,50.5,49.5,30.01,South,169,0.0,0.0,96,0.00,,,0.00,meteohub,2013-10-01 12:26:00,
2013-10-01 08:31:00,51.3,50.2,30.01,South,169,0.0,0.0,96,0.00,,,0.00,meteohub,2013-10-01 12:31:00,
2013-10-01 08:36:00,52.0,50.9,30.01,NE,38,1.0,1.0,96,0.00,,,0.00,meteohub,2013-10-01 12:36:00,
2013-10-01 08:41:00,52.5,51.1,30.02,NE,38,0.0,2.0,95,0.00,,,0.00,meteohub,2013-10-01 12:41:00,
2013-10-01 08:46:00,53.2,51.6,30.02,NE,39,0.0,2.0,94,0.00,,,0.00,meteohub,2013-10-01 12:46:00,
2013-10-01 08:51:00,54.0,52.0,30.02,NE,39,0.0,2.0,93,0.00,,,0.00,meteohub,2013-10-01 12:51:00,
2013-10-01 08:57:00,54.3,52.0,30.02,NE,39,0.0,1.0,92,0.00,,,0.00,meteohub,2013-10-01 12:57:00,
2013-10-01 09:02:00,54.7,52.3,30.02,NE,39,0.0,0.0,92,0.00,,,0.00,meteohub,2013-10-01 13:02:00,
2013-10-01 09:07:00,55.0,52.7,30.02,NE,39,0.0,0.0,92,0.00,,,0.00,meteohub,2013-10-01 13:07:00,
2013-10-01 09:12:00,55.2,52.7,30.02,NE,39,0.0,0.0,91,0.00,,,0.00,meteohub,2013-10-01 13:12:00,
2013-10-01 09:17:00,55.6,53.1,30.01,NE,39,0.0,0.0,91,0.00,,,0.00,meteohub,2013-10-01 13:17:00,
2013-10-01 09:22:00,56.1,53.6,30.01,NE,39,0.0,0.0,91,0.00,,,0.00,meteohub,2013-10-01 13:22:00,
2013-10-01 09:27:00,56.5,54.0,30.01,NE,39,1.0,0.0,91,0.00,,,0.00,meteohub,2013-10-01 13:27:00,
2013-10-01 09:32:00,57.0,53.8,30.01,NE,39,0.0,1.0,89,0.00,,,0.00,meteohub,2013-10-01 13:32:00,
2013-10-01 09:37:00,57.7,54.1,30.01,NE,39,0.0,1.0,88,0.00,,,0.00,meteohub,2013-10-01 13:37:00,
2013-10-01 09:42:00,58.1,54.9,30.01,NE,39,0.0,1.0,89,0.00,,,0.00,meteohub,2013-10-01 13:42:00,
2013-10-01 09:47:00,58.6,55.0,30.01,NE,39,0.0,1.0,88,0.00,,,0.00,meteohub,2013-10-01 13:47:00,
2013-10-01 09:52:00,59.2,55.4,30.01,NE,39,0.0,1.0,87,0.00,,,0.00,meteohub,2013-10-01 13:52:00,
2013-10-01 09:57:00,59.4,55.8,30.01,NE,39,0.0,1.0,88,0.00,,,0.00,meteohub,2013-10-01 13:57:00,
2013-10-01 10:02:00,59.5,55.9,30.01,NE,39,0.0,1.0,88,0.00,,,0.00,meteohub,2013-10-01 14:02:00,
2013-10-01 10:07:00,59.9,56.3,30.01,NE,39,0.0,0.0,88,0.00,,,0.00,meteohub,2013-10-01 14:07:00,
2013-10-01 10:12:00,60.1,56.1,30.01,NE,39,0.0,0.0,87,0.00,,,0.00,meteohub,2013-10-01 14:12:00,
2013-10-01 10:17:00,60.4,56.8,30.00,NE,39,0.0,0.0,88,0.00,,,0.00,meteohub,2013-10-01 14:17:00,
2013-10-01 10:22:00,60.6,57.0,30.00,NE,39,0.0,0.0,88,0.00,,,0.00,meteohub,2013-10-01 14:22:00,
2013-10-01 10:28:00,61.2,57.2,30.00,NE,39,0.0,0.0,87,0.00,,,0.00,meteohub,2013-10-01 14:28:00,
2013-10-01 10:33:00,61.3,57.4,30.00,NE,39,0.0,0.0,87,0.00,,,0.00,meteohub,2013-10-01 14:33:00,
2013-10-01 10:38:00,61.7,57.4,30.00,NE,39,0.0,0.0,86,0.00,,,0.00,meteohub,2013-10-01 14:38:00,
2013-10-01 10:43:00,62.1,57.6,30.00,NE,39,0.0,0.0,85,0.00,,,0.00,meteohub,2013-10-01 14:43:00,
2013-10-01 10:48:00,62.4,57.6,30.00,NE,39,0.0,0.0,84,0.00,,,0.00,meteohub,2013-10-01 14:48:00,
2013-10-01 10:53:00,63.0,58.1,30.00,NE,39,0.0,0.0,84,0.00,,,0.00,meteohub,2013-10-01 14:53:00,
2013-10-01 10:58:00,63.3,58.5,29.99,NE,39,0.0,0.0,84,0.00,,,0.00,meteohub,2013-10-01 14:58:00,
2013-10-01 11:03:00,63.9,58.6,29.99,NE,39,0.0,0.0,83,0.00,,,0.00,meteohub,2013-10-01 15:03:00,
2013-10-01 11:08:00,64.2,59.0,29.99,NE,39,0.0,0.0,83,0.00,,,0.00,meteohub,2013-10-01 15:08:00,
2013-10-01 11:13:00,64.8,59.2,29.99,NE,39,0.0,0.0,82,0.00,,,0.00,meteohub,2013-10-01 15:13:00,
2013-10-01 11:18:00,65.3,59.0,29.99,NE,39,0.0,0.0,80,0.00,,,0.00,meteohub,2013-10-01 15:18:00,
2013-10-01 11:23:00,65.8,59.9,29.99,NE,39,0.0,0.0,81,0.00,,,0.00,meteohub,2013-10-01 15:23:00,
2013-10-01 11:28:00,66.4,60.1,29.98,NE,39,0.0,1.0,80,0.00,,,0.00,meteohub,2013-10-01 15:28:00,
2013-10-01 11:33:00,66.9,59.2,29.98,NE,39,0.0,2.0,76,0.00,,,0.00,meteohub,2013-10-01 15:33:00,
2013-10-01 11:38:00,67.5,59.5,29.98,NE,39,1.0,2.0,76,0.00,,,0.00,meteohub,2013-10-01 15:38:00,
2013-10-01 11:43:00,68.2,59.5,29.98,NE,41,0.0,3.0,74,0.00,,,0.00,meteohub,2013-10-01 15:43:00,
2013-10-01 11:48:00,68.7,60.1,29.97,NE,41,0.0,3.0,74,0.00,,,0.00,meteohub,2013-10-01 15:48:00,
2013-10-01 11:53:00,69.3,59.9,29.97,NE,41,0.0,3.0,72,0.00,,,0.00,meteohub,2013-10-01 15:53:00,
2013-10-01 11:59:00,70.2,59.9,29.97,NE,41,0.0,2.0,70,0.00,,,0.00,meteohub,2013-10-01 15:59:00,
2013-10-01 12:04:00,70.7,60.1,29.97,WSW,241,0.0,2.0,69,0.00,,,0.00,meteohub,2013-10-01 16:04:00,
2013-10-01 12:09:00,71.2,59.7,29.96,WSW,241,0.0,3.0,67,0.00,,,0.00,meteohub,2013-10-01 16:09:00,
2013-10-01 12:14:00,71.8,60.3,29.96,WSW,241,0.0,3.0,67,0.00,,,0.00,meteohub,2013-10-01 16:14:00,
2013-10-01 12:19:00,72.1,59.7,29.96,NE,45,0.0,3.0,65,0.00,,,0.00,meteohub,2013-10-01 16:19:00,
2013-10-01 12:24:00,72.5,60.4,29.96,NE,45,0.0,2.0,66,0.00,,,0.00,meteohub,2013-10-01 16:24:00,
2013-10-01 12:29:00,72.9,59.5,29.96,NE,42,0.0,2.0,63,0.00,,,0.00,meteohub,2013-10-01 16:29:00,
2013-10-01 12:31:00,73.0,60.1,29.96,NE,42,0.0,5.0,64,0.00,,,0.00,meteohub,2013-10-01 16:31:00,
2013-10-01 12:36:00,73.8,59.5,29.96,ENE,64,0.0,5.0,61,0.00,,,0.00,meteohub,2013-10-01 16:36:00,
2013-10-01 12:41:00,74.3,60.4,29.95,SW,228,2.0,5.0,62,0.00,,,0.00,meteohub,2013-10-01 16:41:00,
2013-10-01 12:46:00,74.7,59.9,29.95,NE,54,0.0,5.0,60,0.00,,,0.00,meteohub,2013-10-01 16:46:00,
2013-10-01 12:51:00,75.2,60.4,29.94,South,190,0.0,5.0,60,0.00,,,0.00,meteohub,2013-10-01 16:51:00,
2013-10-01 12:57:00,75.9,59.5,29.94,NE,38,1.0,6.0,57,0.00,,,0.00,meteohub,2013-10-01 16:57:00,
2013-10-01 13:02:00,75.9,59.2,29.94,SSW,194,0.0,7.0,56,0.00,,,0.00,meteohub,2013-10-01 17:02:00,
2013-10-01 13:07:00,76.3,59.4,29.94,ENE,75,1.0,7.0,56,0.00,,,0.00,meteohub,2013-10-01 17:07:00,
2013-10-01 13:12:00,76.3,59.4,29.94,ENE,73,0.0,7.0,56,0.00,,,0.00,meteohub,2013-10-01 17:12:00,
2013-10-01 13:17:00,76.5,58.6,29.94,ENE,73,0.0,4.0,54,0.00,,,0.00,meteohub,2013-10-01 17:17:00,
2013-10-01 13:22:00,76.6,59.2,29.93,ENE,58,1.0,3.0,55,0.00,,,0.00,meteohub,2013-10-01 17:22:00,
2013-10-01 13:27:00,76.8,59.9,29.93,SE,144,0.0,5.0,56,0.00,,,0.00,meteohub,2013-10-01 17:27:00,
2013-10-01 13:32:00,77.7,58.6,29.93,ENE,58,3.0,5.0,52,0.00,,,0.00,meteohub,2013-10-01 17:32:00,
2013-10-01 13:37:00,77.4,57.7,29.92,ENE,68,0.0,5.0,51,0.00,,,0.00,meteohub,2013-10-01 17:37:00,
2013-10-01 13:42:00,77.4,59.4,29.92,ENE,58,0.0,5.0,54,0.00,,,0.00,meteohub,2013-10-01 17:42:00,
2013-10-01 13:47:00,77.5,60.1,29.92,NE,36,0.0,5.0,55,0.00,,,0.00,meteohub,2013-10-01 17:47:00,
2013-10-01 13:52:00,77.4,58.3,29.92,ENE,61,0.0,5.0,52,0.00,,,0.00,meteohub,2013-10-01 17:52:00,
2013-10-01 13:57:00,77.7,60.3,29.92,ESE,110,1.0,5.0,55,0.00,,,0.00,meteohub,2013-10-01 17:57:00,
2013-10-01 14:02:00,78.3,60.3,29.92,SW,215,0.0,5.0,54,0.00,,,0.00,meteohub,2013-10-01 18:02:00,
2013-10-01 14:07:00,78.6,60.1,29.92,WSW,242,0.0,4.0,53,0.00,,,0.00,meteohub,2013-10-01 18:07:00,
2013-10-01 14:12:00,79.0,59.9,29.92,WSW,240,0.0,4.0,52,0.00,,,0.00,meteohub,2013-10-01 18:12:00,
2013-10-01 14:18:00,78.4,59.9,29.92,NE,52,0.0,4.0,53,0.00,,,0.00,meteohub,2013-10-01 18:18:00,
2013-10-01 14:23:00,78.3,61.3,29.91,ENE,77,0.0,3.0,56,0.00,,,0.00,meteohub,2013-10-01 18:23:00,
2013-10-01 14:28:00,78.6,61.2,29.91,ENE,61,4.0,4.0,55,0.00,,,0.00,meteohub,2013-10-01 18:28:00,
2013-10-01 14:33:00,79.0,61.9,29.91,WSW,255,0.0,7.0,56,0.00,,,0.00,meteohub,2013-10-01 18:33:00,
2013-10-01 14:38:00,79.3,60.8,29.92,ENE,74,0.0,7.0,53,0.00,,,0.00,meteohub,2013-10-01 18:38:00,
2013-10-01 14:43:00,79.3,60.3,29.91,ENE,65,0.0,7.0,52,0.00,,,0.00,meteohub,2013-10-01 18:43:00,
2013-10-01 14:48:00,79.2,61.2,29.91,SW,226,0.0,6.0,54,0.00,,,0.00,meteohub,2013-10-01 18:48:00,
2013-10-01 14:53:00,78.4,59.9,29.91,ENE,73,0.0,6.0,53,0.00,,,0.00,meteohub,2013-10-01 18:53:00,
2013-10-01 14:58:00,78.1,60.6,29.91,NE,56,7.0,7.0,55,0.00,,,0.00,meteohub,2013-10-01 18:58:00,
2013-10-01 15:03:00,77.4,59.9,29.91,ENE,71,0.0,11.0,55,0.00,,,0.00,meteohub,2013-10-01 19:03:00,
2013-10-01 15:08:00,77.4,60.4,29.91,SSW,200,0.0,11.0,56,0.00,,,0.00,meteohub,2013-10-01 19:08:00,
2013-10-01 15:14:00,77.5,60.6,29.91,East,83,0.0,11.0,56,0.00,,,0.00,meteohub,2013-10-01 19:14:00,
2013-10-01 15:19:00,77.9,61.0,29.91,SW,223,0.0,6.0,56,0.00,,,0.00,meteohub,2013-10-01 19:19:00,
2013-10-01 15:24:00,78.3,59.7,29.91,South,175,1.0,6.0,53,0.00,,,0.00,meteohub,2013-10-01 19:24:00,
2013-10-01 15:29:00,78.3,60.3,29.91,WSW,242,0.0,7.0,54,0.00,,,0.00,meteohub,2013-10-01 19:29:00,
2013-10-01 15:34:00,78.3,60.3,29.91,WNW,282,0.0,7.0,54,0.00,,,0.00,meteohub,2013-10-01 19:34:00,
2013-10-01 15:39:00,78.1,60.1,29.91,NNE,13,0.0,7.0,54,0.00,,,0.00,meteohub,2013-10-01 19:39:00,
2013-10-01 15:44:00,78.1,61.2,29.91,ENE,71,0.0,6.0,56,0.00,,,0.00,meteohub,2013-10-01 19:44:00,
2013-10-01 15:49:00,78.1,60.1,29.91,ENE,65,0.0,6.0,54,0.00,,,0.00,meteohub,2013-10-01 19:49:00,
2013-10-01 15:54:00,78.1,60.6,29.91,SSW,202,4.0,6.0,55,0.00,,,0.00,meteohub,2013-10-01 19:54:00,
2013-10-01 15:59:00,78.3,60.3,29.91,SW,232,5.0,6.0,54,0.00,,,0.00,meteohub,2013-10-01 19:59:00,
2013-10-01 16:04:00,78.3,60.3,29.91,West,265,0.0,8.0,54,0.00,,,0.00,meteohub,2013-10-01 20:04:00,
2013-10-01 16:09:00,78.1,60.6,29.91,SW,233,0.0,8.0,55,0.00,,,0.00,meteohub,2013-10-01 20:09:00,
2013-10-01 16:14:00,77.7,59.7,29.90,East,83,1.0,8.0,54,0.00,,,0.00,meteohub,2013-10-01 20:14:00,
2013-10-01 16:19:00,77.4,60.4,29.90,SW,223,0.0,5.0,56,0.00,,,0.00,meteohub,2013-10-01 20:19:00,
2013-10-01 16:24:00,77.2,59.7,29.90,SW,215,0.0,5.0,55,0.00,,,0.00,meteohub,2013-10-01 20:24:00,
2013-10-01 16:29:00,76.8,59.4,29.90,SW,215,0.0,5.0,55,0.00,,,0.00,meteohub,2013-10-01 20:29:00,
2013-10-01 16:34:00,76.5,59.5,29.90,SW,215,0.0,2.0,56,0.00,,,0.00,meteohub,2013-10-01 20:34:00,
2013-10-01 16:39:00,76.1,58.8,29.90,SW,215,0.0,2.0,55,0.00,,,0.00,meteohub,2013-10-01 20:39:00,
2013-10-01 16:44:00,75.7,57.9,29.90,ENE,77,0.0,2.0,54,0.00,,,0.00,meteohub,2013-10-01 20:44:00,
2013-10-01 16:49:00,75.4,58.6,29.90,ENE,77,0.0,5.0,56,0.00,,,0.00,meteohub,2013-10-01 20:49:00,
2013-10-01 16:54:00,75.2,57.9,29.90,South,184,0.0,5.0,55,0.00,,,0.00,meteohub,2013-10-01 20:54:00,
2013-10-01 16:59:00,75.0,58.8,29.90,WSW,251,1.0,5.0,57,0.00,,,0.00,meteohub,2013-10-01 20:59:00,
2013-10-01 17:04:00,74.7,58.5,29.90,WSW,251,1.0,4.0,57,0.00,,,0.00,meteohub,2013-10-01 21:04:00,
2013-10-01 17:09:00,74.5,58.3,29.91,WSW,251,0.0,4.0,57,0.00,,,0.00,meteohub,2013-10-01 21:09:00,
2013-10-01 17:14:00,74.3,58.1,29.91,SE,126,0.0,2.0,57,0.00,,,0.00,meteohub,2013-10-01 21:14:00,
2013-10-01 17:19:00,74.1,58.5,29.91,SE,126,0.0,1.0,58,0.00,,,0.00,meteohub,2013-10-01 21:19:00,
2013-10-01 17:24:00,73.9,58.6,29.91,SE,126,0.0,1.0,59,0.00,,,0.00,meteohub,2013-10-01 21:24:00,
2013-10-01 17:29:00,73.6,58.8,29.91,SE,126,0.0,1.0,60,0.00,,,0.00,meteohub,2013-10-01 21:29:00,
2013-10-01 17:34:00,73.4,58.6,29.91,SE,126,0.0,0.0,60,0.00,,,0.00,meteohub,2013-10-01 21:34:00,
2013-10-01 17:39:00,73.2,58.5,29.91,SE,126,0.0,0.0,60,0.00,,,0.00,meteohub,2013-10-01 21:39:00,
2013-10-01 17:44:00,73.0,58.8,29.91,SE,126,0.0,0.0,61,0.00,,,0.00,meteohub,2013-10-01 21:44:00,
2013-10-01 17:49:00,72.7,58.8,29.91,SE,126,0.0,0.0,62,0.00,,,0.00,meteohub,2013-10-01 21:49:00,
2013-10-01 17:54:00,72.5,59.2,29.91,SE,126,0.0,0.0,63,0.00,,,0.00,meteohub,2013-10-01 21:54:00,
2013-10-01 17:59:00,72.1,59.4,29.91,SE,126,0.0,0.0,64,0.00,,,0.00,meteohub,2013-10-01 21:59:00,
2013-10-01 18:04:00,72.0,59.5,29.91,SE,126,0.0,0.0,65,0.00,,,0.00,meteohub,2013-10-01 22:04:00,
2013-10-01 18:09:00,71.8,59.7,29.91,SE,126,0.0,0.0,66,0.00,,,0.00,meteohub,2013-10-01 22:09:00,
2013-10-01 18:14:00,71.4,59.5,29.91,SE,126,0.0,0.0,66,0.00,,,0.00,meteohub,2013-10-01 22:14:00,
2013-10-01 18:19:00,71.1,59.9,29.91,SE,126,0.0,0.0,68,0.00,,,0.00,meteohub,2013-10-01 22:19:00,
2013-10-01 18:25:00,70.5,59.9,29.91,SE,126,0.0,0.0,69,0.00,,,0.00,meteohub,2013-10-01 22:25:00,
2013-10-01 18:30:00,70.2,59.9,29.92,SE,126,0.0,0.0,70,0.00,,,0.00,meteohub,2013-10-01 22:30:00,
2013-10-01 18:35:00,69.6,59.7,29.92,SE,126,0.0,0.0,71,0.00,,,0.00,meteohub,2013-10-01 22:35:00,
2013-10-01 18:40:00,69.1,59.7,29.92,SE,126,0.0,0.0,72,0.00,,,0.00,meteohub,2013-10-01 22:40:00,
2013-10-01 18:45:00,68.7,60.1,29.92,SE,127,0.0,1.0,74,0.00,,,0.00,meteohub,2013-10-01 22:45:00,
2013-10-01 18:50:00,68.2,59.9,29.92,SE,127,0.0,1.0,75,0.00,,,0.00,meteohub,2013-10-01 22:50:00,
2013-10-01 18:55:00,67.6,59.7,29.92,SE,127,0.0,1.0,76,0.00,,,0.00,meteohub,2013-10-01 22:55:00,
2013-10-01 19:00:00,67.3,59.9,29.92,SE,127,0.0,1.0,77,0.00,,,0.00,meteohub,2013-10-01 23:00:00,
2013-10-01 19:05:00,66.9,59.5,29.92,SE,127,0.0,1.0,77,0.00,,,0.00,meteohub,2013-10-01 23:05:00,
2013-10-01 19:10:00,66.7,59.7,29.92,SE,127,0.0,1.0,78,0.00,,,0.00,meteohub,2013-10-01 23:10:00,
2013-10-01 19:15:00,66.6,59.5,29.92,SE,127,0.0,1.0,78,0.00,,,0.00,meteohub,2013-10-01 23:15:00,
2013-10-01 19:20:00,66.2,59.5,29.93,SE,127,0.0,0.0,79,0.00,,,0.00,meteohub,2013-10-01 23:20:00,
2013-10-01 19:21:00,66.0,59.4,29.93,SE,127,0.0,0.0,79,0.00,,,0.00,meteohub,2013-10-01 23:21:00,
2013-10-01 19:26:00,65.8,59.2,29.93,SE,127,0.0,0.0,79,0.00,,,0.00,meteohub,2013-10-01 23:26:00,
2013-10-01 19:30:00,65.7,59.4,29.93,SE,127,0.0,0.0,80,0.00,,,0.00,meteohub,2013-10-01 23:30:00,
2013-10-01 19:35:00,65.5,59.2,29.93,SE,127,0.0,0.0,80,0.00,,,0.00,meteohub,2013-10-01 23:35:00,
2013-10-01 19:40:00,65.1,58.8,29.93,SE,127,0.0,0.0,80,0.00,,,0.00,meteohub,2013-10-01 23:40:00,
2013-10-01 19:45:00,64.9,59.4,29.93,SE,127,0.0,0.0,82,0.00,,,0.00,meteohub,2013-10-01 23:45:00,
2013-10-01 19:50:00,64.8,59.2,29.94,SE,127,0.0,0.0,82,0.00,,,0.00,meteohub,2013-10-01 23:50:00,
2013-10-01 19:55:00,64.6,59.0,29.94,SE,127,0.0,0.0,82,0.00,,,0.00,meteohub,2013-10-01 23:55:00,
2013-10-01 20:00:00,64.2,59.0,29.94,SE,127,0.0,0.0,83,0.00,,,0.00,meteohub,2013-10-02 00:00:00,
2013-10-01 20:05:00,64.0,59.2,29.94,SE,127,0.0,0.0,84,0.00,,,0.00,meteohub,2013-10-02 00:05:00,
2013-10-01 20:10:00,63.7,58.8,29.94,SE,127,0.0,0.0,84,0.00,,,0.00,meteohub,2013-10-02 00:10:00,
2013-10-01 20:15:00,63.3,58.5,29.94,SE,127,0.0,0.0,84,0.00,,,0.00,meteohub,2013-10-02 00:15:00,
2013-10-01 20:17:00,63.1,58.6,29.94,SE,127,0.0,0.0,85,0.00,,,0.00,meteohub,2013-10-02 00:17:00,
2013-10-01 20:22:00,63.0,58.5,29.94,SE,127,0.0,0.0,85,0.00,,,0.00,meteohub,2013-10-02 00:22:00,
2013-10-01 20:27:00,62.8,58.3,29.94,SE,127,0.0,0.0,85,0.00,,,0.00,meteohub,2013-10-02 00:27:00,
2013-10-01 20:32:00,62.4,58.1,29.94,SE,127,0.0,0.0,86,0.00,,,0.00,meteohub,2013-10-02 00:32:00,
2013-10-01 20:37:00,62.2,57.9,29.95,SE,127,0.0,0.0,86,0.00,,,0.00,meteohub,2013-10-02 00:37:00,
2013-10-01 20:42:00,62.1,58.1,29.94,SE,127,0.0,0.0,87,0.00,,,0.00,meteohub,2013-10-02 00:42:00,
2013-10-01 20:47:00,61.9,57.9,29.95,SE,127,0.0,0.0,87,0.00,,,0.00,meteohub,2013-10-02 00:47:00,
2013-10-01 20:52:00,61.7,57.7,29.94,SE,127,0.0,0.0,87,0.00,,,0.00,meteohub,2013-10-02 00:52:00,
2013-10-01 20:57:00,61.5,57.9,29.94,SE,127,0.0,0.0,88,0.00,,,0.00,meteohub,2013-10-02 00:57:00,
2013-10-01 21:02:00,61.3,57.7,29.95,SE,127,0.0,0.0,88,0.00,,,0.00,meteohub,2013-10-02 01:02:00,
2013-10-01 21:07:00,61.2,57.6,29.94,SE,127,0.0,0.0,88,0.00,,,0.00,meteohub,2013-10-02 01:07:00,
2013-10-01 21:12:00,61.2,57.9,29.95,SE,127,0.0,0.0,89,0.00,,,0.00,meteohub,2013-10-02 01:12:00,
2013-10-01 21:17:00,61.0,57.7,29.95,SE,127,0.0,1.0,89,0.00,,,0.00,meteohub,2013-10-02 01:17:00,
2013-10-01 21:22:00,61.0,57.7,29.95,SE,127,0.0,1.0,89,0.00,,,0.00,meteohub,2013-10-02 01:22:00,
2013-10-01 21:27:00,60.8,57.6,29.95,SE,127,0.0,1.0,89,0.00,,,0.00,meteohub,2013-10-02 01:27:00,
2013-10-01 21:32:00,60.8,57.6,29.95,SE,127,0.0,1.0,89,0.00,,,0.00,meteohub,2013-10-02 01:32:00,
2013-10-01 21:37:00,60.6,57.4,29.95,SE,127,0.0,1.0,89,0.00,,,0.00,meteohub,2013-10-02 01:37:00,
2013-10-01 21:42:00,60.6,57.4,29.95,SE,127,0.0,0.0,89,0.00,,,0.00,meteohub,2013-10-02 01:42:00,
2013-10-01 21:47:00,60.4,57.2,29.95,SE,127,0.0,0.0,89,0.00,,,0.00,meteohub,2013-10-02 01:47:00,
2013-10-01 21:52:00,60.3,57.0,29.95,SE,127,0.0,0.0,89,0.00,,,0.00,meteohub,2013-10-02 01:52:00,
2013-10-01 21:57:00,60.1,56.8,29.95,SE,127,0.0,0.0,89,0.00,,,0.00,meteohub,2013-10-02 01:57:00,
2013-10-01 22:02:00,59.7,56.5,29.95,SE,127,0.0,0.0,89,0.00,,,0.00,meteohub,2013-10-02 02:02:00,
2013-10-01 22:07:00,59.5,56.7,29.96,SE,127,0.0,0.0,90,0.00,,,0.00,meteohub,2013-10-02 02:07:00,
2013-10-01 22:12:00,59.5,56.8,29.96,SE,127,0.0,0.0,91,0.00,,,0.00,meteohub,2013-10-02 02:12:00,
2013-10-01 22:17:00,59.5,56.8,29.95,SE,127,0.0,0.0,91,0.00,,,0.00,meteohub,2013-10-02 02:17:00,
2013-10-01 22:22:00,59.4,56.7,29.95,SE,127,0.0,0.0,91,0.00,,,0.00,meteohub,2013-10-02 02:22:00,
2013-10-01 22:27:00,59.4,56.7,29.95,SE,127,0.0,0.0,91,0.00,,,0.00,meteohub,2013-10-02 02:27:00,
2013-10-01 22:32:00,59.4,56.7,29.95,SE,127,0.0,0.0,91,0.00,,,0.00,meteohub,2013-10-02 02:32:00,
2013-10-01 22:37:00,59.4,56.7,29.95,SE,127,1.0,0.0,91,0.00,,,0.00,meteohub,2013-10-02 02:37:00,
2013-10-01 22:42:00,59.2,56.5,29.95,SE,127,0.0,1.0,91,0.00,,,0.00,meteohub,2013-10-02 02:42:00,
2013-10-01 22:47:00,59.2,56.8,29.95,SE,127,0.0,1.0,92,0.00,,,0.00,meteohub,2013-10-02 02:47:00,
2013-10-01 22:52:00,59.2,56.5,29.95,SE,127,0.0,1.0,91,0.00,,,0.00,meteohub,2013-10-02 02:52:00,
2013-10-01 22:57:00,58.8,55.9,29.95,SE,127,0.0,0.0,90,0.00,,,0.00,meteohub,2013-10-02 02:57:00,
2013-10-01 23:02:00,58.6,55.9,29.95,SE,127,0.0,0.0,91,0.00,,,0.00,meteohub,2013-10-02 03:02:00,
2013-10-01 23:07:00,58.5,55.6,29.95,SE,127,0.0,0.0,90,0.00,,,0.00,meteohub,2013-10-02 03:07:00,
2013-10-01 23:13:00,58.1,55.4,29.95,SE,127,0.0,1.0,91,0.00,,,0.00,meteohub,2013-10-02 03:13:00,
2013-10-01 23:18:00,57.9,55.2,29.95,SE,127,0.0,1.0,91,0.00,,,0.00,meteohub,2013-10-02 03:18:00,
2013-10-01 23:23:00,57.7,55.4,29.96,SSE,153,0.0,1.0,92,0.00,,,0.00,meteohub,2013-10-02 03:23:00,
2013-10-01 23:28:00,57.6,55.2,29.96,SSE,163,0.0,2.0,92,0.00,,,0.00,meteohub,2013-10-02 03:28:00,
2013-10-01 23:33:00,57.6,55.2,29.96,SSE,163,0.0,2.0,92,0.00,,,0.00,meteohub,2013-10-02 03:33:00,
2013-10-01 23:38:00,57.6,55.6,29.96,SSE,163,0.0,2.0,93,0.00,,,0.00,meteohub,2013-10-02 03:38:00,
2013-10-01 23:43:00,57.6,55.6,29.96,SSE,163,0.0,1.0,93,0.00,,,0.00,meteohub,2013-10-02 03:43:00,
2013-10-01 23:48:00,57.6,55.6,29.96,SSE,163,0.0,0.0,93,0.00,,,0.00,meteohub,2013-10-02 03:48:00,
2013-10-01 23:53:00,57.6,55.6,29.96,SSE,163,0.0,0.0,93,0.00,,,0.00,meteohub,2013-10-02 03:53:00,
2013-10-01 23:58:00,57.6,55.6,29.96,SSE,163,0.0,0.0,93,0.00,,,0.00,meteohub,2013-10-02 03:58:00,